sensor_id;sensor_type;location;lat;lon;timestamp;temperature;humidity
26186;DHT22;20067;48.764;9.176;2023-04-25T00:01:11;11.40;84.00
26186;DHT22;20067;48.764;9.176;2023-04-25T00:03:38;11.30;82.90
26186;DHT22;20067;48.764;9.176;2023-04-25T00:06:05;11.20;82.90
26186;DHT22;20067;48.764;9.176;2023-04-25T00:08:32;11.00;82.80
26186;DHT22;20067;48.764;9.176;2023-04-25T00:10:58;10.80;83.40
26186;DHT22;20067;48.764;9.176;2023-04-25T00:13:24;10.70;83.30
26186;DHT22;20067;48.764;9.176;2023-04-25T00:15:51;10.60;83.70
26186;DHT22;20067;48.764;9.176;2023-04-25T00:18:16;10.40;84.00
26186;DHT22;20067;48.764;9.176;2023-04-25T00:20:43;10.30;84.40
26186;DHT22;20067;48.764;9.176;2023-04-25T00:23:12;10.50;84.60
26186;DHT22;20067;48.764;9.176;2023-04-25T00:25:45;10.60;84.10
26186;DHT22;20067;48.764;9.176;2023-04-25T00:28:12;10.60;83.80
26186;DHT22;20067;48.764;9.176;2023-04-25T00:30:39;10.80;83.20
26186;DHT22;20067;48.764;9.176;2023-04-25T00:33:05;10.80;83.20
26186;DHT22;20067;48.764;9.176;2023-04-25T00:35:31;10.80;83.40
26186;DHT22;20067;48.764;9.176;2023-04-25T00:37:57;10.90;84.00
26186;DHT22;20067;48.764;9.176;2023-04-25T00:40:22;10.90;84.60
26186;DHT22;20067;48.764;9.176;2023-04-25T00:42:49;11.00;84.60
26186;DHT22;20067;48.764;9.176;2023-04-25T00:45:17;11.10;84.70
26186;DHT22;20067;48.764;9.176;2023-04-25T00:47:43;11.20;84.70
26186;DHT22;20067;48.764;9.176;2023-04-25T00:50:09;11.40;83.60
26186;DHT22;20067;48.764;9.176;2023-04-25T00:52:37;11.40;83.40
26186;DHT22;20067;48.764;9.176;2023-04-25T00:55:03;11.40;83.40
26186;DHT22;20067;48.764;9.176;2023-04-25T00:57:29;11.20;82.70
26186;DHT22;20067;48.764;9.176;2023-04-25T00:59:55;11.10;83.50
26186;DHT22;20067;48.764;9.176;2023-04-25T01:02:21;11.00;83.50
26186;DHT22;20067;48.764;9.176;2023-04-25T01:04:48;10.90;84.70
26186;DHT22;20067;48.764;9.176;2023-04-25T01:07:14;10.90;85.00
26186;DHT22;20067;48.764;9.176;2023-04-25T01:09:41;11.00;85.30
26186;DHT22;20067;48.764;9.176;2023-04-25T01:12:06;10.90;85.50
26186;DHT22;20067;48.764;9.176;2023-04-25T01:14:32;10.90;85.60
26186;DHT22;20067;48.764;9.176;2023-04-25T01:16:59;10.90;83.80
26186;DHT22;20067;48.764;9.176;2023-04-25T01:19:24;10.90;84.60
26186;DHT22;20067;48.764;9.176;2023-04-25T01:21:50;10.70;84.40
26186;DHT22;20067;48.764;9.176;2023-04-25T01:24:16;10.70;84.70
26186;DHT22;20067;48.764;9.176;2023-04-25T01:26:42;10.70;85.00
26186;DHT22;20067;48.764;9.176;2023-04-25T01:29:19;10.60;86.70
26186;DHT22;20067;48.764;9.176;2023-04-25T01:31:45;10.70;87.90
26186;DHT22;20067;48.764;9.176;2023-04-25T01:34:12;10.90;86.90
26186;DHT22;20067;48.764;9.176;2023-04-25T01:36:38;10.90;86.60
26186;DHT22;20067;48.764;9.176;2023-04-25T01:39:04;10.90;85.90
26186;DHT22;20067;48.764;9.176;2023-04-25T01:41:30;10.90;86.50
26186;DHT22;20067;48.764;9.176;2023-04-25T01:43:56;10.80;86.60
26186;DHT22;20067;48.764;9.176;2023-04-25T01:46:22;10.90;86.40
26186;DHT22;20067;48.764;9.176;2023-04-25T01:48:48;10.90;86.80
26186;DHT22;20067;48.764;9.176;2023-04-25T01:51:14;11.00;86.80
26186;DHT22;20067;48.764;9.176;2023-04-25T01:53:40;11.10;86.70
26186;DHT22;20067;48.764;9.176;2023-04-25T01:56:06;11.10;86.80
26186;DHT22;20067;48.764;9.176;2023-04-25T01:58:32;11.10;86.60
26186;DHT22;20067;48.764;9.176;2023-04-25T02:00:58;11.20;86.40
26186;DHT22;20067;48.764;9.176;2023-04-25T02:03:23;11.10;86.60
26186;DHT22;20067;48.764;9.176;2023-04-25T02:05:49;11.20;85.60
26186;DHT22;20067;48.764;9.176;2023-04-25T02:08:16;11.10;85.20
26186;DHT22;20067;48.764;9.176;2023-04-25T02:10:42;10.50;86.80
26186;DHT22;20067;48.764;9.176;2023-04-25T02:13:08;10.20;87.70
26186;DHT22;20067;48.764;9.176;2023-04-25T02:15:34;10.00;88.40
26186;DHT22;20067;48.764;9.176;2023-04-25T02:17:59;9.90;88.90
26186;DHT22;20067;48.764;9.176;2023-04-25T02:20:26;9.90;89.00
26186;DHT22;20067;48.764;9.176;2023-04-25T02:22:52;9.90;88.90
26186;DHT22;20067;48.764;9.176;2023-04-25T02:25:19;9.90;88.50
26186;DHT22;20067;48.764;9.176;2023-04-25T02:27:45;10.00;88.70
26186;DHT22;20067;48.764;9.176;2023-04-25T02:30:11;10.10;87.60
26186;DHT22;20067;48.764;9.176;2023-04-25T02:32:38;10.20;87.40
26186;DHT22;20067;48.764;9.176;2023-04-25T02:35:05;10.20;86.80
26186;DHT22;20067;48.764;9.176;2023-04-25T02:37:33;10.20;86.10
26186;DHT22;20067;48.764;9.176;2023-04-25T02:40:00;10.20;86.80
26186;DHT22;20067;48.764;9.176;2023-04-25T02:42:26;10.20;85.80
26186;DHT22;20067;48.764;9.176;2023-04-25T02:44:52;10.10;86.10
26186;DHT22;20067;48.764;9.176;2023-04-25T02:47:17;10.00;86.80
26186;DHT22;20067;48.764;9.176;2023-04-25T02:49:43;10.10;87.20
26186;DHT22;20067;48.764;9.176;2023-04-25T02:52:08;10.20;87.40
26186;DHT22;20067;48.764;9.176;2023-04-25T02:54:34;10.50;86.00
26186;DHT22;20067;48.764;9.176;2023-04-25T02:57:00;10.30;85.40
26186;DHT22;20067;48.764;9.176;2023-04-25T02:59:26;10.10;86.00
26186;DHT22;20067;48.764;9.176;2023-04-25T03:01:51;10.10;86.30
26186;DHT22;20067;48.764;9.176;2023-04-25T03:04:17;10.10;86.20
26186;DHT22;20067;48.764;9.176;2023-04-25T03:06:44;10.10;85.80
26186;DHT22;20067;48.764;9.176;2023-04-25T03:09:10;10.00;86.00
26186;DHT22;20067;48.764;9.176;2023-04-25T03:11:38;10.00;86.20
26186;DHT22;20067;48.764;9.176;2023-04-25T03:14:04;9.90;86.70
26186;DHT22;20067;48.764;9.176;2023-04-25T03:16:29;10.00;87.30
26186;DHT22;20067;48.764;9.176;2023-04-25T03:18:56;10.20;87.70
26186;DHT22;20067;48.764;9.176;2023-04-25T03:21:22;10.40;87.40
26186;DHT22;20067;48.764;9.176;2023-04-25T03:23:48;10.50;87.00
26186;DHT22;20067;48.764;9.176;2023-04-25T03:26:13;10.70;86.60
26186;DHT22;20067;48.764;9.176;2023-04-25T03:28:39;10.70;86.70
26186;DHT22;20067;48.764;9.176;2023-04-25T03:31:05;10.70;86.60
26186;DHT22;20067;48.764;9.176;2023-04-25T03:33:31;10.80;86.30
26186;DHT22;20067;48.764;9.176;2023-04-25T03:35:57;10.90;85.00
26186;DHT22;20067;48.764;9.176;2023-04-25T03:38:22;10.90;84.40
26186;DHT22;20067;48.764;9.176;2023-04-25T03:40:49;10.90;84.10
26186;DHT22;20067;48.764;9.176;2023-04-25T03:43:16;10.90;83.70
26186;DHT22;20067;48.764;9.176;2023-04-25T03:45:41;10.80;84.10
26186;DHT22;20067;48.764;9.176;2023-04-25T03:48:07;10.80;84.60
26186;DHT22;20067;48.764;9.176;2023-04-25T03:50:33;10.80;85.70
26186;DHT22;20067;48.764;9.176;2023-04-25T03:52:59;10.70;85.90
26186;DHT22;20067;48.764;9.176;2023-04-25T03:55:24;10.70;86.40
26186;DHT22;20067;48.764;9.176;2023-04-25T03:57:50;10.70;86.50
26186;DHT22;20067;48.764;9.176;2023-04-25T04:00:16;10.80;86.20
26186;DHT22;20067;48.764;9.176;2023-04-25T04:02:41;10.90;86.10
26186;DHT22;20067;48.764;9.176;2023-04-25T04:05:07;10.80;86.10
26186;DHT22;20067;48.764;9.176;2023-04-25T04:07:33;10.80;85.50
26186;DHT22;20067;48.764;9.176;2023-04-25T04:10:00;10.70;85.50
26186;DHT22;20067;48.764;9.176;2023-04-25T04:12:26;10.70;85.30
26186;DHT22;20067;48.764;9.176;2023-04-25T04:14:52;10.80;85.10
26186;DHT22;20067;48.764;9.176;2023-04-25T04:17:17;10.70;85.50
26186;DHT22;20067;48.764;9.176;2023-04-25T04:19:43;10.60;86.30
26186;DHT22;20067;48.764;9.176;2023-04-25T04:22:08;10.60;86.30
26186;DHT22;20067;48.764;9.176;2023-04-25T04:24:37;10.60;86.30
26186;DHT22;20067;48.764;9.176;2023-04-25T04:27:02;10.50;86.80
26186;DHT22;20067;48.764;9.176;2023-04-25T04:29:28;10.60;86.30
26186;DHT22;20067;48.764;9.176;2023-04-25T04:31:54;10.30;87.40
26186;DHT22;20067;48.764;9.176;2023-04-25T04:34:19;10.30;87.20
26186;DHT22;20067;48.764;9.176;2023-04-25T04:36:46;9.90;87.90
26186;DHT22;20067;48.764;9.176;2023-04-25T04:39:13;9.70;88.70
26186;DHT22;20067;48.764;9.176;2023-04-25T04:41:38;9.70;89.00
26186;DHT22;20067;48.764;9.176;2023-04-25T04:44:05;9.60;89.10
26186;DHT22;20067;48.764;9.176;2023-04-25T04:46:32;9.80;88.80
26186;DHT22;20067;48.764;9.176;2023-04-25T04:49:05;9.80;88.70
26186;DHT22;20067;48.764;9.176;2023-04-25T04:51:31;9.90;89.00
26186;DHT22;20067;48.764;9.176;2023-04-25T04:53:57;9.90;89.20
26186;DHT22;20067;48.764;9.176;2023-04-25T04:56:24;10.00;89.30
26186;DHT22;20067;48.764;9.176;2023-04-25T04:58:51;10.10;89.20
26186;DHT22;20067;48.764;9.176;2023-04-25T05:01:17;10.20;88.80
26186;DHT22;20067;48.764;9.176;2023-04-25T05:03:43;10.30;88.20
26186;DHT22;20067;48.764;9.176;2023-04-25T05:06:09;10.50;87.70
26186;DHT22;20067;48.764;9.176;2023-04-25T05:08:34;10.50;87.70
26186;DHT22;20067;48.764;9.176;2023-04-25T05:11:00;10.60;87.80
26186;DHT22;20067;48.764;9.176;2023-04-25T05:13:26;10.70;87.70
26186;DHT22;20067;48.764;9.176;2023-04-25T05:15:52;10.80;87.20
26186;DHT22;20067;48.764;9.176;2023-04-25T05:18:17;10.90;86.80
26186;DHT22;20067;48.764;9.176;2023-04-25T05:20:43;11.00;86.20
26186;DHT22;20067;48.764;9.176;2023-04-25T05:23:08;11.00;85.90
26186;DHT22;20067;48.764;9.176;2023-04-25T05:25:34;11.10;85.20
26186;DHT22;20067;48.764;9.176;2023-04-25T05:28:00;11.00;85.60
26186;DHT22;20067;48.764;9.176;2023-04-25T05:30:25;11.10;85.10
26186;DHT22;20067;48.764;9.176;2023-04-25T05:32:51;11.10;85.50
26186;DHT22;20067;48.764;9.176;2023-04-25T05:35:17;11.10;85.40
26186;DHT22;20067;48.764;9.176;2023-04-25T05:37:43;11.00;85.40
26186;DHT22;20067;48.764;9.176;2023-04-25T05:40:09;11.00;85.20
26186;DHT22;20067;48.764;9.176;2023-04-25T05:42:35;11.10;85.30
26186;DHT22;20067;48.764;9.176;2023-04-25T05:45:00;11.20;84.60
26186;DHT22;20067;48.764;9.176;2023-04-25T05:47:26;11.40;84.80
26186;DHT22;20067;48.764;9.176;2023-04-25T05:49:52;11.50;83.70
26186;DHT22;20067;48.764;9.176;2023-04-25T05:52:18;11.60;83.60
26186;DHT22;20067;48.764;9.176;2023-04-25T05:54:43;11.40;82.20
26186;DHT22;20067;48.764;9.176;2023-04-25T05:57:24;11.10;83.10
26186;DHT22;20067;48.764;9.176;2023-04-25T05:59:50;10.80;83.00
26186;DHT22;20067;48.764;9.176;2023-04-25T06:02:15;10.70;83.00
26186;DHT22;20067;48.764;9.176;2023-04-25T06:04:41;10.60;83.40
26186;DHT22;20067;48.764;9.176;2023-04-25T06:07:07;10.60;84.10
26186;DHT22;20067;48.764;9.176;2023-04-25T06:09:32;10.70;83.60
26186;DHT22;20067;48.764;9.176;2023-04-25T06:11:58;10.80;83.70
26186;DHT22;20067;48.764;9.176;2023-04-25T06:14:24;10.90;83.20
26186;DHT22;20067;48.764;9.176;2023-04-25T06:16:49;10.90;83.00
26186;DHT22;20067;48.764;9.176;2023-04-25T06:19:15;10.90;82.70
26186;DHT22;20067;48.764;9.176;2023-04-25T06:21:42;10.70;83.40
26186;DHT22;20067;48.764;9.176;2023-04-25T06:24:08;10.70;83.70
26186;DHT22;20067;48.764;9.176;2023-04-25T06:26:34;10.90;82.40
26186;DHT22;20067;48.764;9.176;2023-04-25T06:28:59;10.90;82.50
26186;DHT22;20067;48.764;9.176;2023-04-25T06:31:25;10.90;82.80
26186;DHT22;20067;48.764;9.176;2023-04-25T06:33:51;10.80;83.30
26186;DHT22;20067;48.764;9.176;2023-04-25T06:36:20;10.90;83.60
26186;DHT22;20067;48.764;9.176;2023-04-25T06:38:50;10.90;83.80
26186;DHT22;20067;48.764;9.176;2023-04-25T06:41:16;10.90;84.60
26186;DHT22;20067;48.764;9.176;2023-04-25T06:43:41;11.00;85.70
26186;DHT22;20067;48.764;9.176;2023-04-25T06:46:07;10.90;86.50
26186;DHT22;20067;48.764;9.176;2023-04-25T06:48:33;11.00;86.10
26186;DHT22;20067;48.764;9.176;2023-04-25T06:50:58;11.00;86.70
26186;DHT22;20067;48.764;9.176;2023-04-25T06:53:24;10.90;86.80
26186;DHT22;20067;48.764;9.176;2023-04-25T06:55:50;11.00;86.60
26186;DHT22;20067;48.764;9.176;2023-04-25T06:58:15;11.10;86.00
26186;DHT22;20067;48.764;9.176;2023-04-25T07:00:41;11.10;85.10
26186;DHT22;20067;48.764;9.176;2023-04-25T07:03:07;10.90;85.30
26186;DHT22;20067;48.764;9.176;2023-04-25T07:05:33;11.00;85.70
26186;DHT22;20067;48.764;9.176;2023-04-25T07:07:59;11.10;85.50
26186;DHT22;20067;48.764;9.176;2023-04-25T07:10:25;10.90;85.20
26186;DHT22;20067;48.764;9.176;2023-04-25T07:12:51;10.90;84.90
26186;DHT22;20067;48.764;9.176;2023-04-25T07:15:17;10.90;85.40
26186;DHT22;20067;48.764;9.176;2023-04-25T07:17:42;10.90;86.30
26186;DHT22;20067;48.764;9.176;2023-04-25T07:20:09;11.00;85.80
26186;DHT22;20067;48.764;9.176;2023-04-25T07:22:35;11.00;86.20
26186;DHT22;20067;48.764;9.176;2023-04-25T07:25:04;11.10;86.40
26186;DHT22;20067;48.764;9.176;2023-04-25T07:27:31;10.90;86.40
26186;DHT22;20067;48.764;9.176;2023-04-25T07:29:57;10.70;87.90
26186;DHT22;20067;48.764;9.176;2023-04-25T07:32:23;10.70;87.70
26186;DHT22;20067;48.764;9.176;2023-04-25T07:34:48;10.50;88.50
26186;DHT22;20067;48.764;9.176;2023-04-25T07:37:14;10.30;90.00
26186;DHT22;20067;48.764;9.176;2023-04-25T07:39:40;10.30;91.20
26186;DHT22;20067;48.764;9.176;2023-04-25T07:42:06;10.40;90.80
26186;DHT22;20067;48.764;9.176;2023-04-25T07:44:34;10.30;91.30
26186;DHT22;20067;48.764;9.176;2023-04-25T07:47:08;10.40;91.30
26186;DHT22;20067;48.764;9.176;2023-04-25T07:49:37;10.50;90.80
26186;DHT22;20067;48.764;9.176;2023-04-25T07:52:04;10.50;90.90
26186;DHT22;20067;48.764;9.176;2023-04-25T07:54:31;10.50;91.00
26186;DHT22;20067;48.764;9.176;2023-04-25T07:56:58;10.50;91.10
26186;DHT22;20067;48.764;9.176;2023-04-25T07:59:24;10.50;90.90
26186;DHT22;20067;48.764;9.176;2023-04-25T08:01:50;10.60;90.70
26186;DHT22;20067;48.764;9.176;2023-04-25T08:04:16;10.60;90.40
26186;DHT22;20067;48.764;9.176;2023-04-25T08:06:42;10.60;90.30
26186;DHT22;20067;48.764;9.176;2023-04-25T08:09:08;10.40;90.90
26186;DHT22;20067;48.764;9.176;2023-04-25T08:11:35;10.10;91.30
26186;DHT22;20067;48.764;9.176;2023-04-25T08:14:01;9.90;91.30
26186;DHT22;20067;48.764;9.176;2023-04-25T08:16:27;9.80;91.30
26186;DHT22;20067;48.764;9.176;2023-04-25T08:18:56;9.60;91.30
26186;DHT22;20067;48.764;9.176;2023-04-25T08:21:21;9.60;91.30
26186;DHT22;20067;48.764;9.176;2023-04-25T08:23:47;9.50;91.30
26186;DHT22;20067;48.764;9.176;2023-04-25T08:26:13;9.50;91.30
26186;DHT22;20067;48.764;9.176;2023-04-25T08:28:38;9.60;91.30
26186;DHT22;20067;48.764;9.176;2023-04-25T08:31:04;9.60;91.30
26186;DHT22;20067;48.764;9.176;2023-04-25T08:33:30;9.50;91.30
26186;DHT22;20067;48.764;9.176;2023-04-25T08:35:57;9.60;91.30
26186;DHT22;20067;48.764;9.176;2023-04-25T08:38:23;9.70;91.30
26186;DHT22;20067;48.764;9.176;2023-04-25T08:40:51;9.70;91.30
26186;DHT22;20067;48.764;9.176;2023-04-25T08:43:19;9.80;91.30
26186;DHT22;20067;48.764;9.176;2023-04-25T08:45:45;9.70;91.30
26186;DHT22;20067;48.764;9.176;2023-04-25T08:48:13;9.70;91.30
26186;DHT22;20067;48.764;9.176;2023-04-25T08:50:50;9.80;91.30
26186;DHT22;20067;48.764;9.176;2023-04-25T08:53:17;9.80;91.30
26186;DHT22;20067;48.764;9.176;2023-04-25T08:55:46;9.80;91.30
26186;DHT22;20067;48.764;9.176;2023-04-25T08:58:12;9.90;91.30
26186;DHT22;20067;48.764;9.176;2023-04-25T09:00:38;10.00;91.30
26186;DHT22;20067;48.764;9.176;2023-04-25T09:03:05;9.90;91.30
26186;DHT22;20067;48.764;9.176;2023-04-25T09:05:34;10.20;91.30
26186;DHT22;20067;48.764;9.176;2023-04-25T09:08:01;10.40;91.30
26186;DHT22;20067;48.764;9.176;2023-04-25T09:10:27;10.20;91.30
26186;DHT22;20067;48.764;9.176;2023-04-25T09:13:06;10.10;91.30
26186;DHT22;20067;48.764;9.176;2023-04-25T09:15:50;10.00;91.30
26186;DHT22;20067;48.764;9.176;2023-04-25T09:18:30;9.80;91.30
26186;DHT22;20067;48.764;9.176;2023-04-25T09:21:04;9.70;91.30
26186;DHT22;20067;48.764;9.176;2023-04-25T09:23:31;9.80;91.30
26186;DHT22;20067;48.764;9.176;2023-04-25T09:26:03;9.90;91.30
26186;DHT22;20067;48.764;9.176;2023-04-25T09:28:32;9.70;91.30
26186;DHT22;20067;48.764;9.176;2023-04-25T09:30:58;9.60;91.30
26186;DHT22;20067;48.764;9.176;2023-04-25T09:33:29;9.60;91.30
26186;DHT22;20067;48.764;9.176;2023-04-25T09:36:02;9.40;91.30
26186;DHT22;20067;48.764;9.176;2023-04-25T09:38:39;9.40;91.30
26186;DHT22;20067;48.764;9.176;2023-04-25T09:41:06;9.40;91.30
26186;DHT22;20067;48.764;9.176;2023-04-25T09:43:32;9.40;91.30
26186;DHT22;20067;48.764;9.176;2023-04-25T09:45:58;9.40;91.30
26186;DHT22;20067;48.764;9.176;2023-04-25T09:48:27;9.50;91.30
26186;DHT22;20067;48.764;9.176;2023-04-25T09:51:10;9.60;91.30
26186;DHT22;20067;48.764;9.176;2023-04-25T09:53:38;9.50;91.30
26186;DHT22;20067;48.764;9.176;2023-04-25T09:56:06;9.60;91.30
26186;DHT22;20067;48.764;9.176;2023-04-25T09:58:33;9.90;91.30
26186;DHT22;20067;48.764;9.176;2023-04-25T10:01:01;9.70;91.30
26186;DHT22;20067;48.764;9.176;2023-04-25T10:03:32;9.50;91.30
26186;DHT22;20067;48.764;9.176;2023-04-25T10:06:04;9.40;91.30
26186;DHT22;20067;48.764;9.176;2023-04-25T10:08:36;9.40;91.30
26186;DHT22;20067;48.764;9.176;2023-04-25T10:11:05;9.40;91.30
26186;DHT22;20067;48.764;9.176;2023-04-25T10:13:32;9.30;91.30
26186;DHT22;20067;48.764;9.176;2023-04-25T10:16:00;9.30;91.30
26186;DHT22;20067;48.764;9.176;2023-04-25T10:18:28;9.10;91.30
26186;DHT22;20067;48.764;9.176;2023-04-25T10:20:55;9.00;91.30
26186;DHT22;20067;48.764;9.176;2023-04-25T10:23:22;9.20;91.30
26186;DHT22;20067;48.764;9.176;2023-04-25T10:25:50;9.40;91.30
26186;DHT22;20067;48.764;9.176;2023-04-25T10:28:16;9.50;91.30
26186;DHT22;20067;48.764;9.176;2023-04-25T10:31:01;9.60;91.30
26186;DHT22;20067;48.764;9.176;2023-04-25T10:36:15;9.50;91.30
26186;DHT22;20067;48.764;9.176;2023-04-25T10:38:43;9.40;91.30
26186;DHT22;20067;48.764;9.176;2023-04-25T10:41:10;9.50;91.30
26186;DHT22;20067;48.764;9.176;2023-04-25T10:43:44;9.50;91.30
26186;DHT22;20067;48.764;9.176;2023-04-25T10:51:27;9.80;91.30
26186;DHT22;20067;48.764;9.176;2023-04-25T10:54:13;9.60;91.30
26186;DHT22;20067;48.764;9.176;2023-04-25T10:56:42;9.60;91.30
26186;DHT22;20067;48.764;9.176;2023-04-25T10:59:13;9.30;91.30
26186;DHT22;20067;48.764;9.176;2023-04-25T11:01:43;9.00;91.30
26186;DHT22;20067;48.764;9.176;2023-04-25T11:04:31;8.80;91.30
26186;DHT22;20067;48.764;9.176;2023-04-25T11:07:10;8.80;91.30
26186;DHT22;20067;48.764;9.176;2023-04-25T11:09:40;8.70;91.30
26186;DHT22;20067;48.764;9.176;2023-04-25T11:12:08;8.30;91.30
26186;DHT22;20067;48.764;9.176;2023-04-25T11:14:34;8.40;91.30
26186;DHT22;20067;48.764;9.176;2023-04-25T11:17:00;8.60;91.30
26186;DHT22;20067;48.764;9.176;2023-04-25T11:19:28;8.90;91.30
26186;DHT22;20067;48.764;9.176;2023-04-25T11:22:01;8.80;91.30
26186;DHT22;20067;48.764;9.176;2023-04-25T11:24:28;9.00;91.30
26186;DHT22;20067;48.764;9.176;2023-04-25T11:26:54;9.20;91.30
26186;DHT22;20067;48.764;9.176;2023-04-25T11:29:22;9.40;91.30
26186;DHT22;20067;48.764;9.176;2023-04-25T11:31:48;9.50;91.30
26186;DHT22;20067;48.764;9.176;2023-04-25T11:34:18;9.50;91.30
26186;DHT22;20067;48.764;9.176;2023-04-25T11:36:45;9.60;91.30
26186;DHT22;20067;48.764;9.176;2023-04-25T11:39:11;9.60;91.30
26186;DHT22;20067;48.764;9.176;2023-04-25T11:41:38;9.90;91.30
26186;DHT22;20067;48.764;9.176;2023-04-25T11:44:04;10.20;91.10
26186;DHT22;20067;48.764;9.176;2023-04-25T11:46:30;10.20;90.10
26186;DHT22;20067;48.764;9.176;2023-04-25T11:48:57;10.30;90.40
26186;DHT22;20067;48.764;9.176;2023-04-25T11:51:22;10.40;90.60
26186;DHT22;20067;48.764;9.176;2023-04-25T11:53:48;10.50;89.90
26186;DHT22;20067;48.764;9.176;2023-04-25T11:56:14;10.70;88.90
26186;DHT22;20067;48.764;9.176;2023-04-25T11:59:04;10.70;88.60
26186;DHT22;20067;48.764;9.176;2023-04-25T12:01:37;10.60;88.20
26186;DHT22;20067;48.764;9.176;2023-04-25T12:06:42;10.60;88.60
26186;DHT22;20067;48.764;9.176;2023-04-25T12:09:11;10.70;89.20
26186;DHT22;20067;48.764;9.176;2023-04-25T12:11:58;10.90;86.90
26186;DHT22;20067;48.764;9.176;2023-04-25T12:14:29;10.70;88.50
26186;DHT22;20067;48.764;9.176;2023-04-25T12:16:57;10.60;89.60
26186;DHT22;20067;48.764;9.176;2023-04-25T12:19:26;10.70;88.90
26186;DHT22;20067;48.764;9.176;2023-04-25T12:21:52;10.80;86.60
26186;DHT22;20067;48.764;9.176;2023-04-25T12:24:22;10.70;87.40
26186;DHT22;20067;48.764;9.176;2023-04-25T12:27:05;10.40;89.80
26186;DHT22;20067;48.764;9.176;2023-04-25T12:29:32;10.40;90.10
26186;DHT22;20067;48.764;9.176;2023-04-25T12:31:58;10.70;88.50
26186;DHT22;20067;48.764;9.176;2023-04-25T12:34:25;10.70;88.60
26186;DHT22;20067;48.764;9.176;2023-04-25T12:36:52;10.50;89.30
26186;DHT22;20067;48.764;9.176;2023-04-25T12:39:19;10.20;91.00
26186;DHT22;20067;48.764;9.176;2023-04-25T12:41:45;10.00;91.30
26186;DHT22;20067;48.764;9.176;2023-04-25T12:44:12;10.10;91.30
26186;DHT22;20067;48.764;9.176;2023-04-25T12:46:38;10.20;91.30
26186;DHT22;20067;48.764;9.176;2023-04-25T12:49:05;10.10;91.30
26186;DHT22;20067;48.764;9.176;2023-04-25T12:51:33;10.10;91.30
26186;DHT22;20067;48.764;9.176;2023-04-25T12:53:59;10.10;90.70
26186;DHT22;20067;48.764;9.176;2023-04-25T12:56:26;10.30;91.30
26186;DHT22;20067;48.764;9.176;2023-04-25T12:58:53;10.60;90.40
26186;DHT22;20067;48.764;9.176;2023-04-25T13:01:19;10.90;88.80
26186;DHT22;20067;48.764;9.176;2023-04-25T13:03:45;10.90;88.20
26186;DHT22;20067;48.764;9.176;2023-04-25T13:06:11;11.10;88.70
26186;DHT22;20067;48.764;9.176;2023-04-25T13:08:36;11.20;87.30
26186;DHT22;20067;48.764;9.176;2023-04-25T13:11:04;11.50;87.10
26186;DHT22;20067;48.764;9.176;2023-04-25T13:13:30;11.80;86.40
26186;DHT22;20067;48.764;9.176;2023-04-25T13:15:57;12.10;86.40
26186;DHT22;20067;48.764;9.176;2023-04-25T13:18:23;12.00;85.50
26186;DHT22;20067;48.764;9.176;2023-04-25T13:20:52;11.80;84.70
26186;DHT22;20067;48.764;9.176;2023-04-25T13:23:18;11.30;86.70
26186;DHT22;20067;48.764;9.176;2023-04-25T13:25:44;11.10;87.90
26186;DHT22;20067;48.764;9.176;2023-04-25T13:28:10;11.10;88.20
26186;DHT22;20067;48.764;9.176;2023-04-25T13:30:36;11.20;89.90
26186;DHT22;20067;48.764;9.176;2023-04-25T13:33:02;11.50;87.80
26186;DHT22;20067;48.764;9.176;2023-04-25T13:35:30;11.50;89.20
26186;DHT22;20067;48.764;9.176;2023-04-25T13:37:56;11.70;87.60
26186;DHT22;20067;48.764;9.176;2023-04-25T13:40:21;11.80;85.90
26186;DHT22;20067;48.764;9.176;2023-04-25T13:42:47;11.80;87.40
26186;DHT22;20067;48.764;9.176;2023-04-25T13:45:13;12.00;86.20
26186;DHT22;20067;48.764;9.176;2023-04-25T13:47:38;12.10;86.30
26186;DHT22;20067;48.764;9.176;2023-04-25T13:50:04;12.10;85.30
26186;DHT22;20067;48.764;9.176;2023-04-25T13:52:33;12.00;85.50
26186;DHT22;20067;48.764;9.176;2023-04-25T13:54:59;12.00;85.80
26186;DHT22;20067;48.764;9.176;2023-04-25T13:57:25;11.90;86.70
26186;DHT22;20067;48.764;9.176;2023-04-25T13:59:51;11.90;86.60
26186;DHT22;20067;48.764;9.176;2023-04-25T14:02:18;12.00;86.80
26186;DHT22;20067;48.764;9.176;2023-04-25T14:04:43;12.30;86.00
26186;DHT22;20067;48.764;9.176;2023-04-25T14:07:09;12.20;85.90
26186;DHT22;20067;48.764;9.176;2023-04-25T14:09:36;12.30;87.00
26186;DHT22;20067;48.764;9.176;2023-04-25T14:12:02;12.40;85.30
26186;DHT22;20067;48.764;9.176;2023-04-25T14:14:28;12.40;84.40
26186;DHT22;20067;48.764;9.176;2023-04-25T14:16:54;12.60;83.20
26186;DHT22;20067;48.764;9.176;2023-04-25T14:19:22;12.90;83.20
26186;DHT22;20067;48.764;9.176;2023-04-25T14:21:49;13.50;82.20
26186;DHT22;20067;48.764;9.176;2023-04-25T14:24:14;13.80;80.50
26186;DHT22;20067;48.764;9.176;2023-04-25T14:26:41;13.90;78.90
26186;DHT22;20067;48.764;9.176;2023-04-25T14:29:08;13.80;79.40
26186;DHT22;20067;48.764;9.176;2023-04-25T14:31:34;13.70;79.30
26186;DHT22;20067;48.764;9.176;2023-04-25T14:34:01;13.80;79.80
26186;DHT22;20067;48.764;9.176;2023-04-25T14:36:28;13.90;79.70
26186;DHT22;20067;48.764;9.176;2023-04-25T14:38:54;14.20;79.20
26186;DHT22;20067;48.764;9.176;2023-04-25T14:41:20;14.50;75.90
26186;DHT22;20067;48.764;9.176;2023-04-25T14:43:46;14.40;75.40
26186;DHT22;20067;48.764;9.176;2023-04-25T14:46:12;14.40;74.50
26186;DHT22;20067;48.764;9.176;2023-04-25T14:48:38;13.90;76.30
26186;DHT22;20067;48.764;9.176;2023-04-25T14:51:04;13.80;77.50
26186;DHT22;20067;48.764;9.176;2023-04-25T14:53:31;13.80;78.30
26186;DHT22;20067;48.764;9.176;2023-04-25T14:55:57;13.80;78.90
26186;DHT22;20067;48.764;9.176;2023-04-25T14:58:23;13.50;79.00
26186;DHT22;20067;48.764;9.176;2023-04-25T15:00:49;13.50;78.30
26186;DHT22;20067;48.764;9.176;2023-04-25T15:03:14;13.30;78.10
26186;DHT22;20067;48.764;9.176;2023-04-25T15:05:42;13.30;77.70
26186;DHT22;20067;48.764;9.176;2023-04-25T15:08:08;13.30;78.20
26186;DHT22;20067;48.764;9.176;2023-04-25T15:10:33;13.40;79.40
26186;DHT22;20067;48.764;9.176;2023-04-25T15:12:59;13.80;78.00
26186;DHT22;20067;48.764;9.176;2023-04-25T15:15:25;14.20;77.10
26186;DHT22;20067;48.764;9.176;2023-04-25T15:17:52;14.30;75.70
26186;DHT22;20067;48.764;9.176;2023-04-25T15:20:17;14.20;76.30
26186;DHT22;20067;48.764;9.176;2023-04-25T15:22:43;14.10;75.70
26186;DHT22;20067;48.764;9.176;2023-04-25T15:25:14;14.20;76.50
26186;DHT22;20067;48.764;9.176;2023-04-25T15:27:43;13.70;77.40
26186;DHT22;20067;48.764;9.176;2023-04-25T15:30:13;13.40;77.30
26186;DHT22;20067;48.764;9.176;2023-04-25T15:32:41;13.20;77.80
26186;DHT22;20067;48.764;9.176;2023-04-25T15:35:07;13.00;77.90
26186;DHT22;20067;48.764;9.176;2023-04-25T15:37:34;13.20;77.70
26186;DHT22;20067;48.764;9.176;2023-04-25T15:40:04;13.50;76.60
26186;DHT22;20067;48.764;9.176;2023-04-25T15:42:35;13.40;77.30
26186;DHT22;20067;48.764;9.176;2023-04-25T15:45:01;13.40;77.10